createdAt,value
2023-03-26T00:00:23.718Z,78.21
2023-03-26T00:03:33.416Z,78.17
2023-03-26T00:06:44.716Z,77.75
2023-03-26T00:10:06.699Z,77.97
2023-03-26T00:13:09.130Z,78.36
2023-03-26T00:16:25.737Z,79.23
2023-03-26T00:19:34.735Z,79.17
2023-03-26T00:22:43.382Z,79.12
2023-03-26T00:25:59.711Z,79.25
2023-03-26T00:29:08.719Z,78.67
2023-03-26T00:32:17.376Z,78.52
2023-03-26T00:35:32.740Z,78.76
2023-03-26T00:38:34.781Z,78.93
2023-03-26T00:41:49.723Z,78.75
2023-03-26T00:44:52.322Z,78.89
2023-03-26T00:48:06.747Z,78.99
2023-03-26T00:51:16.921Z,78.93
2023-03-26T00:54:31.747Z,78.56
2023-03-26T00:57:40.759Z,78.86
2023-03-26T01:01:18.839Z,78.41
2023-03-26T01:04:33.401Z,78.34
2023-03-26T01:07:48.725Z,78.04
2023-03-26T01:11:05.743Z,78.37
2023-03-26T01:14:24.708Z,78.72
2023-03-26T01:17:33.471Z,78.64
2023-03-26T01:20:50.699Z,79.18
2023-03-26T01:24:10.737Z,79.46
2023-03-26T01:27:40.769Z,80.25
2023-03-26T01:31:03.724Z,80.24
2023-03-26T01:34:34.704Z,80.78
2023-03-26T01:38:18.741Z,80.97
2023-03-26T01:41:48.737Z,81.39
2023-03-26T01:45:17.718Z,81.62
2023-03-26T01:48:26.696Z,80.92
2023-03-26T01:51:42.757Z,80.81
2023-03-26T01:54:45.062Z,80.10
2023-03-26T01:58:30.747Z,80.80
2023-03-26T02:01:51.034Z,80.09
2023-03-26T02:05:29.706Z,80.46
2023-03-26T02:09:06.696Z,80.72
2023-03-26T02:12:23.736Z,81.39
2023-03-26T02:15:39.674Z,81.67
2023-03-26T02:18:56.689Z,82.25
2023-03-26T02:22:11.697Z,83.29
2023-03-26T02:25:27.698Z,83.30
2023-03-26T02:28:35.693Z,83.43
2023-03-26T02:31:51.715Z,83.41
2023-03-26T02:35:06.898Z,84.31
2023-03-26T02:38:15.716Z,84.11
2023-03-26T02:41:31.686Z,83.27
2023-03-26T02:44:40.393Z,83.01
2023-03-26T02:47:55.723Z,82.07
2023-03-26T02:51:04.917Z,81.98
2023-03-26T02:54:20.692Z,81.42
2023-03-26T02:57:29.384Z,81.64
2023-03-26T03:00:45.759Z,81.07
2023-03-26T03:03:47.789Z,80.60
2023-03-26T03:07:02.689Z,81.46
2023-03-26T03:10:26.080Z,81.89
2023-03-26T03:13:40.702Z,83.13
2023-03-26T03:16:55.729Z,83.05
2023-03-26T03:19:57.819Z,84.70
2023-03-26T03:23:13.763Z,85.02
2023-03-26T03:26:30.710Z,86.23
2023-03-26T03:29:46.703Z,86.59
2023-03-26T03:33:01.750Z,87.49
2023-03-26T03:36:20.763Z,88.10
2023-03-26T03:39:36.713Z,88.35
2023-03-26T03:42:53.713Z,88.89
2023-03-26T03:45:55.862Z,89.68
2023-03-26T03:49:10.710Z,89.97
2023-03-26T03:52:19.748Z,90.48
2023-03-26T03:55:28.606Z,90.26
2023-03-26T03:58:37.725Z,90.23
2023-03-26T04:01:52.721Z,90.20
2023-03-26T04:05:01.714Z,90.53
2023-03-26T04:08:16.892Z,90.20
2023-03-26T04:11:26.183Z,91.04
2023-03-26T04:14:41.717Z,90.64
2023-03-26T04:17:50.530Z,90.22
2023-03-26T04:20:59.706Z,90.00
2023-03-26T04:24:15.695Z,89.68
2023-03-26T04:27:30.916Z,90.24
2023-03-26T04:30:42.744Z,89.77
2023-03-26T04:33:58.765Z,89.65
2023-03-26T04:37:04.266Z,89.35
2023-03-26T04:40:20.744Z,90.44
2023-03-26T04:43:35.736Z,91.04
2023-03-26T04:46:37.938Z,91.00
2023-03-26T04:49:54.710Z,91.41
2023-03-26T04:53:04.059Z,91.73
2023-03-26T04:56:36.710Z,91.68
2023-03-26T04:59:51.733Z,91.51
2023-03-26T05:02:54.247Z,92.01
2023-03-26T05:06:08.720Z,91.99
2023-03-26T05:09:10.882Z,91.89
2023-03-26T05:12:32.712Z,92.21
2023-03-26T05:15:41.393Z,89.75
2023-03-26T05:18:49.733Z,85.97
2023-03-26T05:22:05.719Z,82.83
2023-03-26T05:25:08.406Z,81.17
2023-03-26T05:28:23.711Z,79.08
2023-03-26T05:31:32.734Z,80.16
2023-03-26T05:34:41.861Z,79.82
2023-03-26T05:37:56.746Z,78.95
2023-03-26T05:41:05.117Z,78.40
2023-03-26T05:44:19.714Z,79.26
2023-03-26T05:47:28.362Z,78.76
2023-03-26T05:50:36.702Z,77.34
2023-03-26T05:53:51.767Z,77.28
2023-03-26T05:57:06.763Z,76.71
2023-03-26T06:00:22.694Z,76.63
2023-03-26T06:03:31.875Z,75.99
2023-03-26T06:06:46.713Z,75.00
2023-03-26T06:10:01.731Z,75.36
2023-03-26T06:13:03.868Z,74.65
2023-03-26T06:16:27.431Z,75.51
2023-03-26T06:19:42.745Z,76.50
2023-03-26T06:22:44.906Z,75.65
2023-03-26T06:25:59.725Z,74.59
2023-03-26T06:29:08.895Z,74.65
2023-03-26T06:32:20.140Z,73.80
2023-03-26T06:35:36.753Z,73.21
2023-03-26T06:38:45.351Z,73.15
2023-03-26T06:41:53.704Z,72.12
2023-03-26T06:45:02.428Z,71.18
2023-03-26T06:48:17.707Z,70.52
2023-03-26T06:51:26.735Z,70.57
2023-03-26T06:54:35.500Z,69.62
2023-03-26T06:57:43.737Z,67.15
2023-03-26T07:00:54.278Z,66.49
2023-03-26T07:04:09.805Z,65.74
2023-03-26T07:07:18.707Z,63.25
2023-03-26T07:10:34.108Z,63.16
2023-03-26T07:13:42.774Z,60.27
2023-03-26T07:16:58.746Z,59.74
2023-03-26T07:20:14.743Z,58.90
2023-03-26T07:23:17.168Z,59.54
2023-03-26T07:27:02.725Z,59.23
2023-03-26T07:30:20.735Z,59.38
2023-03-26T07:33:39.402Z,59.89
2023-03-26T07:36:59.735Z,59.44
2023-03-26T07:40:22.787Z,59.58
2023-03-26T07:43:56.426Z,60.13
2023-03-26T07:47:23.818Z,61.46
2023-03-26T07:50:35.704Z,60.86
2023-03-26T07:53:51.749Z,60.87
2023-03-26T07:57:14.754Z,59.37
2023-03-26T08:00:43.720Z,59.78
2023-03-26T08:04:24.315Z,62.93
2023-03-26T08:08:14.741Z,63.85
2023-03-26T08:11:48.754Z,62.80
2023-03-26T08:15:09.728Z,60.09
2023-03-26T08:18:37.721Z,59.67
2023-03-26T08:21:54.358Z,59.39
2023-03-26T08:25:34.177Z,60.82
2023-03-26T08:28:50.022Z,60.60
2023-03-26T08:32:06.795Z,60.84
2023-03-26T08:35:21.880Z,60.69
2023-03-26T08:38:30.930Z,61.18
2023-03-26T08:42:04.735Z,61.66
2023-03-26T08:45:34.732Z,61.06
2023-03-26T08:49:15.756Z,61.73
2023-03-26T08:52:52.951Z,61.53
2023-03-26T08:56:04.748Z,61.38
2023-03-26T08:59:41.719Z,63.26
2023-03-26T09:03:10.962Z,61.79
2023-03-26T09:06:58.780Z,59.51
2023-03-26T09:10:44.743Z,57.10
2023-03-26T09:14:31.027Z,57.19
2023-03-26T09:18:08.800Z,56.01
2023-03-26T09:21:56.813Z,51.46
2023-03-26T09:25:22.640Z,51.70
2023-03-26T09:29:33.263Z,49.88
2023-03-26T09:33:14.693Z,49.01
2023-03-26T09:37:08.721Z,47.86
2023-03-26T09:40:31.742Z,48.19
2023-03-26T09:44:00.747Z,47.46
2023-03-26T09:47:15.739Z,47.30
2023-03-26T09:50:57.029Z,47.60
2023-03-26T09:54:38.799Z,48.83
2023-03-26T09:58:11.926Z,47.23
2023-03-26T10:02:11.743Z,45.56
2023-03-26T10:05:55.841Z,43.84
2023-03-26T10:09:34.762Z,45.22
2023-03-26T10:13:14.458Z,42.76
2023-03-26T10:16:32.785Z,44.05
2023-03-26T10:20:02.806Z,45.25
2023-03-26T10:23:26.754Z,46.91
2023-03-26T10:27:08.819Z,48.65
2023-03-26T10:30:44.758Z,50.44
2023-03-26T10:34:29.322Z,50.37
2023-03-26T10:42:18.258Z,69.37
2023-03-26T10:45:51.445Z,81.05
2023-03-26T10:49:31.695Z,83.42
2023-03-26T10:53:03.693Z,82.61
2023-03-26T10:56:36.700Z,83.83
2023-03-26T10:59:51.713Z,79.96
2023-03-26T11:03:11.870Z,82.48
2023-03-26T11:07:00.700Z,78.19
2023-03-26T11:10:15.710Z,72.10
2023-03-26T11:13:45.739Z,76.28
2023-03-26T11:17:06.727Z,76.12
2023-03-26T11:20:24.347Z,77.56
2023-03-26T11:23:44.720Z,72.55
2023-03-26T11:27:15.532Z,76.47
2023-03-26T11:30:50.746Z,74.11
2023-03-26T11:34:12.717Z,76.35
2023-03-26T11:37:26.742Z,73.04
2023-03-26T11:40:47.709Z,74.46
2023-03-26T11:44:12.008Z,73.70
2023-03-26T11:47:24.860Z,74.36
2023-03-26T11:50:36.746Z,69.90
2023-03-26T11:53:45.908Z,66.59
2023-03-26T11:57:25.764Z,64.05
2023-03-26T12:00:29.246Z,67.70
2023-03-26T12:03:44.763Z,61.63
2023-03-26T12:06:58.815Z,59.75
2023-03-26T12:10:29.061Z,60.09
2023-03-26T12:13:44.782Z,62.04
2023-03-26T12:17:13.712Z,60.24
2023-03-26T12:20:31.720Z,59.07
2023-03-26T12:23:50.915Z,59.73
2023-03-26T12:27:04.723Z,57.95
2023-03-26T12:30:25.527Z,55.45
2023-03-26T12:33:41.731Z,55.53
2023-03-26T12:37:02.749Z,57.05
2023-03-26T12:40:35.161Z,57.70
2023-03-26T12:44:53.356Z,58.29
2023-03-26T12:47:59.262Z,54.30
2023-03-26T12:51:16.972Z,52.40
2023-03-26T12:54:59.744Z,49.04
2023-03-26T12:58:31.711Z,51.78
2023-03-26T13:01:46.788Z,48.04
2023-03-26T13:05:13.132Z,44.23
2023-03-26T13:08:45.719Z,43.26
2023-03-26T13:12:08.182Z,44.94
2023-03-26T13:15:27.756Z,44.76
2023-03-26T13:18:54.897Z,43.95
2023-03-26T13:22:23.742Z,43.25
2023-03-26T13:26:11.065Z,41.92
2023-03-26T13:29:23.638Z,41.74
2023-03-26T13:32:50.774Z,42.27
2023-03-26T13:36:23.359Z,43.37
2023-03-26T13:39:50.747Z,44.73
2023-03-26T13:43:06.173Z,44.85
2023-03-26T13:46:30.811Z,43.43
2023-03-26T13:49:51.517Z,43.15
2023-03-26T13:53:20.802Z,43.75
2023-03-26T13:56:43.178Z,42.98
2023-03-26T13:59:52.039Z,43.59
2023-03-26T14:03:19.776Z,43.97
2023-03-26T14:06:48.494Z,40.34
2023-03-26T14:10:39.749Z,41.14
2023-03-26T14:14:09.782Z,40.82
2023-03-26T14:17:59.697Z,39.90
2023-03-26T14:21:40.745Z,39.29
2023-03-26T14:25:02.826Z,39.66
2023-03-26T14:28:27.178Z,39.04
2023-03-26T14:32:24.407Z,39.87
2023-03-26T14:35:58.781Z,38.35
2023-03-26T14:39:19.398Z,37.42
2023-03-26T14:43:07.939Z,38.01
2023-03-26T14:46:42.308Z,36.86
2023-03-26T14:50:36.730Z,36.70
2023-03-26T14:53:52.862Z,35.57
2023-03-26T14:57:59.748Z,35.04
2023-03-26T15:01:34.282Z,35.81
2023-03-26T15:05:03.093Z,36.17
2023-03-26T15:08:34.082Z,36.34
2023-03-26T15:11:45.798Z,35.25
2023-03-26T15:15:19.764Z,36.44
2023-03-26T15:18:42.662Z,36.05
2023-03-26T15:22:20.780Z,37.12
2023-03-26T15:25:36.119Z,36.78
2023-03-26T15:29:18.756Z,37.96
2023-03-26T15:32:58.341Z,38.27
2023-03-26T15:36:35.238Z,39.51
2023-03-26T15:40:20.774Z,40.52
2023-03-26T15:44:23.739Z,40.70
2023-03-26T15:47:55.793Z,41.74
2023-03-26T15:51:21.365Z,43.07
2023-03-26T15:54:43.756Z,41.54
2023-03-26T15:58:15.935Z,41.92
2023-03-26T16:01:43.312Z,42.42
2023-03-26T16:05:02.943Z,43.22
2023-03-26T16:08:36.406Z,42.59
2023-03-26T16:11:59.086Z,42.53
2023-03-26T16:15:13.800Z,43.57
2023-03-26T16:18:47.070Z,44.60
2023-03-26T16:22:00.531Z,45.02
2023-03-26T16:25:59.768Z,45.03
2023-03-26T16:29:20.771Z,44.57
2023-03-26T16:32:42.663Z,44.77
2023-03-26T16:36:23.436Z,44.44
2023-03-26T16:39:49.736Z,44.90
2023-03-26T16:43:07.777Z,44.94
2023-03-26T16:46:22.819Z,45.47
2023-03-26T16:49:35.948Z,45.26
2023-03-26T16:53:16.272Z,46.43
2023-03-26T16:56:27.879Z,46.37
2023-03-26T17:00:05.260Z,46.80
2023-03-26T17:03:38.183Z,47.56
2023-03-26T17:07:15.789Z,48.37
2023-03-26T17:11:07.212Z,48.62
2023-03-26T17:14:42.629Z,48.45
2023-03-26T17:17:58.140Z,49.04
2023-03-26T17:21:45.520Z,49.15
2023-03-26T17:25:09.221Z,50.13
2023-03-26T17:28:24.161Z,50.01
2023-03-26T17:31:57.825Z,50.82
2023-03-26T17:35:17.183Z,51.38
2023-03-26T17:38:32.720Z,51.28
2023-03-26T17:41:52.884Z,51.44
2023-03-26T17:45:28.242Z,52.28
2023-03-26T17:48:39.588Z,53.04
2023-03-26T17:52:03.802Z,52.83
2023-03-26T17:55:36.741Z,52.74
2023-03-26T17:58:52.789Z,54.30
2023-03-26T18:02:05.935Z,54.31
2023-03-26T18:05:18.261Z,55.65
2023-03-26T18:08:39.426Z,53.82
2023-03-26T18:12:30.374Z,53.40
2023-03-26T18:15:50.043Z,53.69
2023-03-26T18:19:21.826Z,53.94
2023-03-26T18:22:34.841Z,54.58
2023-03-26T18:25:56.489Z,54.10
2023-03-26T18:29:18.274Z,54.15
2023-03-26T18:32:36.318Z,53.83
2023-03-26T18:35:46.959Z,53.51
2023-03-26T18:39:05.762Z,54.22
2023-03-26T18:42:26.823Z,54.74
2023-03-26T18:45:47.270Z,54.67
2023-03-26T18:48:56.422Z,55.33
2023-03-26T18:52:06.284Z,55.52
2023-03-26T18:55:16.762Z,55.19
2023-03-26T18:58:42.505Z,56.66
2023-03-26T19:01:53.048Z,56.78
2023-03-26T19:05:09.237Z,56.27
2023-03-26T19:08:18.846Z,56.63
2023-03-26T19:11:37.299Z,55.96
2023-03-26T19:15:14.025Z,56.81
2023-03-26T19:18:31.353Z,56.46
2023-03-26T19:21:48.351Z,57.11
2023-03-26T19:25:01.924Z,57.87
2023-03-26T19:28:28.216Z,57.42
2023-03-26T19:31:45.362Z,57.99
2023-03-26T19:34:55.283Z,59.27
2023-03-26T19:38:04.816Z,58.73
2023-03-26T19:41:19.382Z,58.96
2023-03-26T19:44:37.221Z,68.63
2023-03-26T19:48:03.515Z,70.85
2023-03-26T19:51:42.251Z,73.36
2023-03-26T19:55:18.493Z,73.50
2023-03-26T19:58:36.215Z,73.94
2023-03-26T20:01:51.864Z,73.80
2023-03-26T20:04:54.947Z,75.39
2023-03-26T20:08:20.255Z,76.67
2023-03-26T20:11:43.820Z,76.41
2023-03-26T20:14:59.602Z,73.38
2023-03-26T20:18:08.844Z,69.15
2023-03-26T20:21:22.086Z,71.96
2023-03-26T20:24:38.799Z,68.51
2023-03-26T20:27:48.224Z,69.28
2023-03-26T20:31:04.312Z,64.80
2023-03-26T20:34:30.276Z,64.97
2023-03-26T20:37:33.912Z,64.48
2023-03-26T20:40:49.817Z,60.67
2023-03-26T20:43:53.774Z,63.45
2023-03-26T20:47:08.977Z,62.80
2023-03-26T20:50:26.838Z,64.06
2023-03-26T20:53:37.029Z,63.74
2023-03-26T20:56:45.862Z,63.57
2023-03-26T21:00:00.809Z,63.70
2023-03-26T21:03:13.695Z,63.82
2023-03-26T21:06:21.878Z,67.08
2023-03-26T21:09:37.823Z,65.12
2023-03-26T21:13:01.806Z,66.07
2023-03-26T21:16:17.861Z,69.12
2023-03-26T21:19:32.851Z,68.97
2023-03-26T21:22:48.948Z,69.22
2023-03-26T21:26:41.444Z,68.03
2023-03-26T21:29:57.832Z,67.85
2023-03-26T21:33:19.795Z,67.07
2023-03-26T21:36:28.797Z,66.32
2023-03-26T21:39:44.827Z,67.01
2023-03-26T21:42:56.893Z,67.49
2023-03-26T21:46:05.891Z,67.81
2023-03-26T21:49:15.809Z,72.77
2023-03-26T21:52:31.419Z,79.26
2023-03-26T21:56:00.815Z,79.10
2023-03-26T21:59:27.053Z,82.30
2023-03-26T22:02:53.894Z,83.49
2023-03-26T22:06:16.816Z,85.01
2023-03-26T22:09:26.357Z,86.56
2023-03-26T22:12:55.815Z,86.96
2023-03-26T22:16:04.843Z,88.21
2023-03-26T22:19:13.485Z,91.39
2023-03-26T22:22:21.836Z,94.54
2023-03-26T22:25:30.424Z,100.00
2023-03-26T22:28:44.821Z,100.00
2023-03-26T22:32:01.568Z,100.00
2023-03-26T22:35:09.836Z,100.00
2023-03-26T22:38:24.808Z,100.00
2023-03-26T22:41:33.481Z,100.00
2023-03-26T22:44:41.816Z,100.00
2023-03-26T22:47:50.497Z,100.00
2023-03-26T22:51:07.813Z,100.00
2023-03-26T22:54:16.547Z,100.00
2023-03-26T22:57:31.817Z,100.00
2023-03-26T23:00:47.831Z,100.00
2023-03-26T23:03:56.817Z,100.00
2023-03-26T23:07:05.854Z,100.00
2023-03-26T23:10:14.816Z,100.00
2023-03-26T23:13:30.835Z,100.00
2023-03-26T23:16:39.475Z,100.00
2023-03-26T23:19:53.839Z,100.00
2023-03-26T23:23:02.806Z,100.00
2023-03-26T23:26:17.837Z,100.00
2023-03-26T23:29:20.109Z,100.00
2023-03-26T23:32:34.868Z,100.00
2023-03-26T23:35:36.954Z,100.00
2023-03-26T23:38:55.816Z,100.00
2023-03-26T23:42:11.047Z,100.00
2023-03-26T23:45:25.889Z,100.00
2023-03-26T23:48:40.826Z,100.00
2023-03-26T23:51:55.838Z,100.00
2023-03-26T23:54:58.767Z,100.00
2023-03-26T23:58:13.818Z,100.00
